Time;durP1;ratioP1;P1;durP2;ratioP2;P2;SDS_P1;SDS_P2;PMS_P1;PMS_P2;Temp;Humidity;BMP_temperature;BMP_pressure;BME280_temperature;BME280_humidity;BME280_pressure;Samples;Min_cycle;Max_cycle;Signal;HPM_P1;HPM_P2
2022/04/08 00:01:51;;;;;;;17.98;1.90;;;5.90;99.90;;;;;;5017878;28;20053;-75
2022/04/08 00:04:16;;;;;;;10.73;1.83;;;5.80;99.90;;;;;;5034855;28;20049;-77
2022/04/08 00:06:42;;;;;;;15.40;1.95;;;5.80;99.90;;;;;;5034752;28;20128;-76
2022/04/08 00:09:07;;;;;;;3.60;1.10;;;5.80;99.90;;;;;;5034704;28;20060;-77
2022/04/08 00:11:33;;;;;;;4.57;1.20;;;5.70;99.90;;;;;;5035118;28;20041;-76
2022/04/08 00:14:00;;;;;;;9.27;1.88;;;5.80;99.90;;;;;;5034682;28;20132;-77
2022/04/08 00:16:26;;;;;;;;;;;5.70;99.90;;;;;;5035360;28;20053;-76
2022/04/08 00:18:51;;;;;;;3.92;1.13;;;5.70;99.90;;;;;;5017004;28;20016;-77
2022/04/08 00:21:17;;;;;;;8.65;1.42;;;5.70;99.90;;;;;;5034410;28;20052;-76
2022/04/08 00:23:43;;;;;;;6.38;1.20;;;5.70;99.90;;;;;;5034451;28;20507;-76
2022/04/08 00:26:09;;;;;;;7.50;2.08;;;5.60;99.90;;;;;;5034262;28;20048;-76
2022/04/08 00:28:35;;;;;;;6.32;1.73;;;5.60;99.90;;;;;;5034374;28;20045;-77
2022/04/08 00:31:02;;;;;;;6.90;1.75;;;5.50;99.90;;;;;;5034078;28;20056;-76
2022/04/08 00:33:31;;;;;;;11.40;1.95;;;5.50;99.90;;;;;;5034241;28;20071;-77
2022/04/08 00:35:56;;;;;;;6.50;1.20;;;5.50;99.90;;;;;;5034370;28;20132;-77
2022/04/08 00:38:22;;;;;;;7.05;1.52;;;5.50;99.90;;;;;;5034231;28;20153;-77
2022/04/08 00:40:47;;;;;;;5.15;1.35;;;5.50;99.90;;;;;;5034560;28;20140;-77
2022/04/08 00:43:16;;;;;;;7.60;1.40;;;5.40;99.90;;;;;;5034268;28;20143;-77
2022/04/08 00:45:42;;;;;;;8.68;1.45;;;5.40;99.90;;;;;;5034107;28;20045;-77
2022/04/08 00:48:08;;;;;;;4.80;1.20;;;5.40;99.90;;;;;;5034067;28;20048;-77
2022/04/08 00:50:39;;;;;;;4.60;1.13;;;5.40;99.90;;;;;;5034073;28;20046;-77
2022/04/08 00:53:06;;;;;;;6.10;1.17;;;5.40;99.90;;;;;;5033985;28;20076;-76
2022/04/08 00:55:33;;;;;;;5.65;1.40;;;5.40;99.90;;;;;;5034028;28;20053;-77
2022/04/08 00:58:03;;;;;;;3.55;1.33;;;5.40;99.90;;;;;;5034004;28;20045;-76
2022/04/08 01:00:33;;;;;;;3.45;1.20;;;5.40;99.90;;;;;;5033879;28;20049;-77
2022/04/08 01:02:59;;;;;;;7.88;1.20;;;5.30;99.90;;;;;;5033849;28;20041;-75
2022/04/08 01:05:25;;;;;;;7.13;1.40;;;5.40;99.90;;;;;;5016600;28;20049;-77
2022/04/08 01:07:52;;;;;;;6.97;1.70;;;5.30;99.90;;;;;;5033413;28;20050;-77
2022/04/08 01:10:18;;;;;;;6.15;1.40;;;5.40;99.90;;;;;;5033810;28;20057;-77
2022/04/08 01:12:43;;;;;;;3.90;1.25;;;5.30;99.90;;;;;;5033763;28;20045;-77
2022/04/08 01:15:09;;;;;;;3.10;0.98;;;5.30;99.90;;;;;;5034019;28;20477;-77
2022/04/08 01:17:35;;;;;;;1.77;0.90;;;5.20;99.90;;;;;;5033985;28;20049;-77
2022/04/08 01:20:01;;;;;;;2.75;1.00;;;5.20;99.90;;;;;;5033760;28;20056;-77
2022/04/08 01:22:28;;;;;;;3.38;1.05;;;5.10;99.90;;;;;;5033612;28;20066;-76
2022/04/08 01:25:04;;;;;;;;;;;5.10;99.90;;;;;;5034038;28;20045;-76
2022/04/08 01:27:29;;;;;;;3.00;0.80;;;5.00;99.90;;;;;;5033525;28;20024;-76
2022/04/08 01:29:56;;;;;;;3.92;0.93;;;4.90;99.90;;;;;;5033719;28;20069;-76
2022/04/08 01:32:22;;;;;;;0.90;0.80;;;4.80;99.90;;;;;;5033218;28;20050;-76
2022/04/08 01:34:53;;;;;;;2.22;1.10;;;4.80;99.90;;;;;;5033581;28;20089;-76
2022/04/08 01:37:19;;;;;;;6.82;1.00;;;4.70;99.90;;;;;;5034043;28;20044;-75
2022/04/08 01:39:44;;;;;;;4.28;1.20;;;4.70;99.90;;;;;;5033320;28;20555;-76
2022/04/08 01:42:10;;;;;;;5.60;1.10;;;4.70;99.90;;;;;;5033492;28;20128;-76
2022/04/08 01:44:37;;;;;;;2.97;1.08;;;4.70;99.90;;;;;;5033491;28;20057;-76
2022/04/08 01:47:03;;;;;;;3.67;1.33;;;4.60;99.90;;;;;;5033449;28;20041;-76
2022/04/08 01:49:29;;;;;;;4.30;1.20;;;4.60;99.90;;;;;;5033602;28;20438;-77
2022/04/08 01:51:55;;;;;;;1.65;0.80;;;4.50;99.90;;;;;;5033417;28;20033;-76
2022/04/08 01:54:20;;;;;;;5.00;1.10;;;4.40;99.90;;;;;;5033487;28;20098;-77
2022/04/08 01:56:46;;;;;;;4.45;1.00;;;4.40;99.90;;;;;;5033384;28;20485;-77
2022/04/08 01:59:12;;;;;;;3.75;1.17;;;4.30;99.90;;;;;;5033335;28;20049;-75
2022/04/08 02:01:38;;;;;;;7.00;1.20;;;4.30;99.90;;;;;;5033263;28;20433;-76
2022/04/08 02:04:04;;;;;;;4.30;1.15;;;4.30;99.90;;;;;;5033312;28;20049;-76
2022/04/08 02:06:34;;;;;;;3.23;1.40;;;4.30;99.90;;;;;;5015987;28;20042;-76
2022/04/08 02:08:59;;;;;;;4.70;1.15;;;4.20;99.90;;;;;;5033252;28;20049;-76
2022/04/08 02:11:25;;;;;;;4.53;0.98;;;4.20;99.90;;;;;;5033333;28;20097;-76
2022/04/08 02:13:51;;;;;;;2.88;1.15;;;4.20;99.90;;;;;;5033243;28;20041;-75
2022/04/08 02:16:17;;;;;;;6.80;1.10;;;4.10;99.90;;;;;;5032987;28;20088;-76
2022/04/08 02:18:42;;;;;;;6.35;1.08;;;4.10;99.90;;;;;;5033289;28;20160;-76
2022/04/08 02:21:09;;;;;;;3.15;1.23;;;4.00;99.90;;;;;;5037508;28;20038;-76
2022/04/08 02:23:35;;;;;;;;;;;4.00;99.90;;;;;;5037664;28;20042;-76
2022/04/08 02:26:01;;;;;;;5.57;1.20;;;4.00;99.90;;;;;;5037005;28;19921;-76
2022/04/08 02:28:26;;;;;;;5.28;1.10;;;3.90;99.90;;;;;;5036628;28;20049;-76
2022/04/08 02:30:54;;;;;;;5.75;1.58;;;3.90;99.90;;;;;;5036359;28;20045;-76
2022/04/08 02:33:20;;;;;;;5.35;1.17;;;3.80;99.90;;;;;;5036564;28;20061;-76
2022/04/08 02:35:45;;;;;;;5.88;1.50;;;3.70;99.90;;;;;;5036504;28;20041;-76
2022/04/08 02:38:11;;;;;;;4.95;1.40;;;3.70;99.90;;;;;;5036480;28;20088;-76
2022/04/08 02:40:37;;;;;;;5.20;1.15;;;3.60;99.90;;;;;;5036586;28;20037;-76
2022/04/08 02:43:03;;;;;;;5.00;2.13;;;3.60;99.90;;;;;;5036449;28;20053;-76
2022/04/08 02:45:29;;;;;;;6.20;1.40;;;3.50;99.90;;;;;;5036315;28;20460;-76
2022/04/08 02:47:55;;;;;;;8.05;1.20;;;3.40;99.90;;;;;;5036242;28;20077;-77
2022/04/08 02:50:20;;;;;;;4.72;1.30;;;3.40;99.90;;;;;;5036282;28;20424;-76
2022/04/08 02:52:46;;;;;;;7.47;1.70;;;3.30;99.90;;;;;;5036151;28;20041;-76
2022/04/08 02:55:12;;;;;;;8.93;1.50;;;3.30;99.90;;;;;;5036181;28;20149;-76
2022/04/08 02:57:44;;;;;;;5.55;1.20;;;3.30;99.90;;;;;;5036119;28;20050;-76
2022/04/08 03:00:12;;;;;;;8.25;1.38;;;3.30;99.90;;;;;;5036203;28;20041;-76
2022/04/08 03:02:37;;;;;;;7.82;1.70;;;3.20;99.90;;;;;;5035971;28;20050;-76
2022/04/08 03:05:06;;;;;;;5.13;1.27;;;3.20;99.90;;;;;;5036073;28;20392;-76
2022/04/08 03:07:32;;;;;;;5.43;1.58;;;3.30;99.90;;;;;;5036043;28;20570;-76
2022/04/08 03:09:58;;;;;;;7.60;1.60;;;3.30;99.90;;;;;;5036016;28;20094;-77
2022/04/08 03:12:23;;;;;;;4.82;1.42;;;3.30;99.90;;;;;;5035412;28;20045;-76
2022/04/08 03:14:49;;;;;;;3.72;1.40;;;3.40;99.90;;;;;;5035859;28;20056;-75
2022/04/08 03:17:14;;;;;;;12.10;1.67;;;3.50;99.90;;;;;;5035733;28;20042;-75
2022/04/08 03:19:40;;;;;;;6.82;1.58;;;3.50;99.90;;;;;;5035677;28;20045;-76
2022/04/08 03:22:06;;;;;;;3.80;1.35;;;3.50;99.90;;;;;;5035747;28;20527;-75
2022/04/08 03:24:32;;;;;;;5.78;1.67;;;3.50;99.90;;;;;;5035645;28;20124;-76
2022/04/08 03:26:58;;;;;;;6.38;1.15;;;3.50;99.90;;;;;;5035468;28;20132;-76
2022/04/08 03:29:23;;;;;;;6.97;1.30;;;3.50;99.90;;;;;;5035473;28;20041;-76
2022/04/08 03:31:49;;;;;;;4.28;1.20;;;3.50;99.90;;;;;;5034945;28;20123;-76
2022/04/08 03:34:15;;;;;;;8.07;2.13;;;3.40;99.90;;;;;;5035492;28;20056;-75
2022/04/08 03:36:40;;;;;;;6.28;1.40;;;3.40;99.90;;;;;;5035459;28;20045;-75
2022/04/08 03:39:06;;;;;;;8.35;2.65;;;3.40;99.90;;;;;;5035407;28;20037;-77
2022/04/08 03:41:31;;;;;;;8.32;1.30;;;3.50;99.90;;;;;;5035188;28;20394;-76
2022/04/08 03:43:57;;;;;;;7.32;1.30;;;3.40;99.90;;;;;;5035306;28;20056;-77
2022/04/08 03:46:22;;;;;;;2.83;1.23;;;3.40;99.90;;;;;;5035201;28;20045;-77
2022/04/08 03:48:48;;;;;;;4.65;1.20;;;3.40;99.90;;;;;;5035127;28;20401;-77
2022/04/08 03:51:13;;;;;;;7.95;1.58;;;3.40;99.90;;;;;;5035031;28;20037;-76
2022/04/08 03:53:39;;;;;;;6.38;1.38;;;3.40;99.90;;;;;;5035063;28;20049;-75
2022/04/08 03:56:05;;;;;;;7.43;1.85;;;3.40;99.90;;;;;;5034998;28;20049;-76
2022/04/08 03:58:31;;;;;;;5.20;1.25;;;3.50;99.90;;;;;;5035166;28;20046;-76
2022/04/08 04:00:56;;;;;;;4.10;1.25;;;3.40;99.90;;;;;;5035008;28;20124;-75
2022/04/08 04:03:22;;;;;;;5.53;1.30;;;3.40;99.90;;;;;;5034918;28;20127;-77
2022/04/08 04:05:48;;;;;;;3.88;1.20;;;3.40;99.90;;;;;;5035312;28;20402;-76
2022/04/08 04:08:19;;;;;;;2.88;1.25;;;3.40;99.90;;;;;;5034586;28;20474;-76
2022/04/08 04:10:46;;;;;;;2.95;1.13;;;3.40;99.90;;;;;;5035057;28;20085;-76
2022/04/08 04:13:11;;;;;;;4.28;1.30;;;3.30;99.90;;;;;;5034734;28;20045;-76
2022/04/08 04:15:37;;;;;;;8.23;1.80;;;3.30;99.90;;;;;;5034673;28;20041;-76
2022/04/08 04:18:03;;;;;;;3.20;1.20;;;3.20;99.90;;;;;;5034601;28;20122;-77
2022/04/08 04:20:29;;;;;;;8.10;1.60;;;3.30;99.90;;;;;;5034544;28;20539;-77
2022/04/08 04:22:55;;;;;;;6.75;1.92;;;3.30;99.90;;;;;;5034535;28;20042;-77
2022/04/08 04:25:20;;;;;;;5.35;1.50;;;3.30;99.90;;;;;;5034505;28;20045;-77
2022/04/08 04:27:46;;;;;;;6.43;1.83;;;3.30;99.90;;;;;;5034366;28;20045;-76
2022/04/08 04:30:11;;;;;;;4.05;1.30;;;3.40;99.90;;;;;;5034296;28;20159;-76
2022/04/08 04:32:37;;;;;;;5.95;1.65;;;3.30;99.90;;;;;;5034180;28;20515;-76
2022/04/08 04:35:06;;;;;;;6.07;1.40;;;3.30;99.90;;;;;;5034292;28;20048;-77
2022/04/08 04:37:36;;;;;;;3.30;1.20;;;3.30;99.90;;;;;;5034705;28;20041;-75
2022/04/08 04:40:03;;;;;;;5.60;1.90;;;3.40;99.90;;;;;;5034300;28;20044;-75
2022/04/08 04:42:28;;;;;;;7.57;1.55;;;3.40;99.90;;;;;;5033605;28;20057;-76
2022/04/08 04:44:55;;;;;;;4.57;1.73;;;3.50;99.90;;;;;;5034241;28;20041;-75
2022/04/08 04:47:21;;;;;;;8.68;1.40;;;3.50;99.90;;;;;;5034054;28;20138;-76
2022/04/08 04:49:47;;;;;;;8.85;1.70;;;3.50;99.90;;;;;;5034161;28;20053;-75
2022/04/08 04:52:12;;;;;;;9.63;1.58;;;3.50;99.90;;;;;;5033983;28;20045;-76
2022/04/08 04:54:38;;;;;;;7.85;1.50;;;3.50;99.90;;;;;;5033808;28;20131;-76
2022/04/08 04:57:04;;;;;;;5.70;1.70;;;3.50;99.90;;;;;;5033989;28;20124;-75
2022/04/08 04:59:30;;;;;;;6.68;1.63;;;3.40;99.90;;;;;;5033922;28;20045;-76
2022/04/08 05:01:55;;;;;;;5.70;1.50;;;3.40;99.90;;;;;;5033747;28;20049;-76
2022/04/08 05:04:21;;;;;;;3.85;2.30;;;3.40;99.90;;;;;;5033857;28;20085;-77
2022/04/08 05:06:46;;;;;;;8.30;1.60;;;3.30;99.90;;;;;;5034125;28;20095;-75
2022/04/08 05:09:12;;;;;;;4.45;1.40;;;3.30;99.90;;;;;;5033847;28;20067;-76
2022/04/08 05:11:37;;;;;;;4.57;1.52;;;3.30;99.90;;;;;;5033909;28;20481;-76
2022/04/08 05:14:03;;;;;;;5.20;1.65;;;3.30;99.90;;;;;;5033742;28;20565;-76
2022/04/08 05:16:29;;;;;;;8.05;1.55;;;3.30;99.90;;;;;;5033532;28;20112;-77
2022/04/08 05:18:55;;;;;;;9.23;1.70;;;3.20;99.90;;;;;;5033720;28;20132;-77
2022/04/08 05:21:21;;;;;;;5.35;1.75;;;3.30;99.90;;;;;;5034057;28;20088;-78
2022/04/08 05:23:47;;;;;;;4.57;1.55;;;3.40;99.90;;;;;;5033596;28;20045;-76
2022/04/08 05:26:14;;;;;;;8.37;1.90;;;3.70;99.90;;;;;;5033629;28;20046;-76
2022/04/08 05:28:39;;;;;;;6.95;1.92;;;3.40;99.90;;;;;;5033803;28;20449;-77
2022/04/08 05:31:05;;;;;;;14.73;1.80;;;3.40;99.90;;;;;;5033655;28;20140;-76
2022/04/08 05:33:31;;;;;;;8.02;1.95;;;3.40;99.90;;;;;;5033565;28;20045;-76
2022/04/08 05:35:56;;;;;;;12.40;2.40;;;3.40;99.90;;;;;;5033598;28;20091;-77
2022/04/08 05:38:22;;;;;;;20.50;2.78;;;3.50;99.90;;;;;;5033409;28;20049;-77
2022/04/08 05:40:49;;;;;;;7.32;2.25;;;3.50;99.90;;;;;;5015933;28;20507;-77
2022/04/08 05:43:16;;;;;;;10.40;1.88;;;3.60;99.90;;;;;;5033358;28;20124;-76
2022/04/08 05:45:41;;;;;;;15.45;1.80;;;3.60;99.90;;;;;;5033506;28;20053;-77
2022/04/08 05:48:07;;;;;;;7.65;1.90;;;3.70;99.90;;;;;;5033477;28;20056;-78
2022/04/08 05:50:33;;;;;;;7.75;1.90;;;3.80;99.90;;;;;;5033385;28;20132;-77
2022/04/08 05:52:59;;;;;;;6.50;2.33;;;3.90;99.90;;;;;;5034015;28;20045;-77
2022/04/08 05:55:25;;;;;;;8.05;2.20;;;4.00;99.90;;;;;;5037405;28;20052;-76
2022/04/08 05:57:53;;;;;;;10.70;1.90;;;4.00;99.90;;;;;;5037320;28;20045;-75
2022/04/08 06:00:20;;;;;;;10.23;2.22;;;4.10;99.90;;;;;;5037233;28;20045;-78
2022/04/08 06:02:47;;;;;;;16.80;2.40;;;4.00;99.90;;;;;;5019702;28;20045;-76
2022/04/08 06:05:19;;;;;;;7.18;1.90;;;4.20;99.90;;;;;;5037688;28;20085;-75
2022/04/08 06:07:50;;;;;;;6.65;2.05;;;4.00;99.90;;;;;;5037528;28;20068;-77
2022/04/08 06:10:18;;;;;;;5.35;1.58;;;4.00;99.90;;;;;;5037104;28;20048;-80
2022/04/08 06:12:47;;;;;;;2.78;1.33;;;4.00;99.90;;;;;;5036762;28;20068;-76
2022/04/08 06:15:14;;;;;;;4.18;1.83;;;3.90;99.90;;;;;;5036967;28;20041;-78
2022/04/08 06:17:39;;;;;;;3.13;1.35;;;3.90;99.90;;;;;;5019666;28;20049;-77
2022/04/08 06:20:06;;;;;;;5.90;1.40;;;4.00;99.90;;;;;;5034963;28;20048;-78
2022/04/08 06:22:32;;;;;;;3.58;1.42;;;4.00;99.90;;;;;;5036847;28;20053;-77
2022/04/08 06:24:57;;;;;;;5.43;1.73;;;4.10;99.90;;;;;;5036832;28;20041;-78
2022/04/08 06:27:23;;;;;;;2.13;1.30;;;4.10;99.90;;;;;;5036692;28;20052;-77
2022/04/08 06:29:49;;;;;;;6.00;1.40;;;4.10;99.90;;;;;;5036119;28;20075;-77
2022/04/08 06:32:14;;;;;;;3.45;1.35;;;4.00;99.90;;;;;;5036749;28;20053;-77
2022/04/08 06:34:40;;;;;;;2.67;1.20;;;4.00;99.90;;;;;;5035262;28;20052;-78
2022/04/08 06:37:05;;;;;;;2.50;1.40;;;3.90;99.90;;;;;;5036707;28;20037;-78
2022/04/08 06:39:31;;;;;;;3.75;1.23;;;3.90;99.90;;;;;;5036369;28;20042;-80
2022/04/08 06:41:57;;;;;;;4.03;1.23;;;3.80;99.90;;;;;;5036263;28;20045;-79
2022/04/08 06:44:23;;;;;;;1.90;1.15;;;3.80;99.90;;;;;;5018433;28;20081;-79
2022/04/08 06:46:49;;;;;;;4.82;1.60;;;3.80;99.90;;;;;;5036119;28;20465;-81
2022/04/08 06:49:14;;;;;;;3.05;1.58;;;3.80;99.90;;;;;;5019016;28;20045;-80
2022/04/08 06:51:40;;;;;;;5.30;1.70;;;4.10;99.90;;;;;;5035969;28;20045;-78
2022/04/08 06:54:05;;;;;;;5.68;1.52;;;3.90;99.90;;;;;;5036039;28;20049;-77
2022/04/08 06:56:31;;;;;;;3.28;1.95;;;3.80;99.90;;;;;;5035660;28;20074;-78
2022/04/08 06:58:57;;;;;;;3.38;1.25;;;3.90;99.90;;;;;;5035908;28;20532;-76
2022/04/08 07:01:24;;;;;;;3.03;1.30;;;3.90;99.90;;;;;;5036013;28;20108;-77
2022/04/08 07:03:49;;;;;;;2.53;1.33;;;4.10;99.90;;;;;;5035563;28;20448;-76
2022/04/08 07:06:15;;;;;;;2.85;1.35;;;4.20;99.90;;;;;;5034526;28;20042;-76
2022/04/08 07:08:40;;;;;;;1.23;1.00;;;4.30;99.90;;;;;;5035746;28;20144;-78
2022/04/08 07:11:06;;;;;;;2.55;1.20;;;4.40;99.90;;;;;;5035592;28;20054;-76
2022/04/08 07:13:32;;;;;;;3.05;1.20;;;4.40;99.90;;;;;;5018027;28;20473;-75
2022/04/08 07:15:57;;;;;;;2.38;1.25;;;4.40;99.90;;;;;;5035652;28;20548;-76
2022/04/08 07:18:23;;;;;;;2.25;1.20;;;4.40;99.90;;;;;;5034640;28;20045;-75
2022/04/08 07:20:48;;;;;;;3.63;1.23;;;4.50;99.90;;;;;;5035465;28;20052;-77
2022/04/08 07:23:14;;;;;;;2.10;1.20;;;4.50;99.90;;;;;;5035411;28;20037;-78
2022/04/08 07:25:39;;;;;;;3.20;1.38;;;4.50;99.90;;;;;;5035196;28;20049;-75
2022/04/08 07:28:05;;;;;;;3.42;1.45;;;4.60;99.90;;;;;;5035111;28;20050;-76
2022/04/08 07:30:31;;;;;;;2.35;1.20;;;4.60;99.90;;;;;;5035194;28;20153;-78
2022/04/08 07:32:56;;;;;;;2.80;1.27;;;4.60;99.90;;;;;;5034979;28;20050;-76
2022/04/08 07:35:25;;;;;;;1.95;1.40;;;4.70;99.90;;;;;;5035393;28;20045;-77
2022/04/08 07:37:51;;;;;;;2.45;1.30;;;4.80;99.90;;;;;;5035289;28;20045;-75
2022/04/08 07:40:19;;;;;;;4.22;1.30;;;4.90;99.90;;;;;;5035114;28;20183;-76
2022/04/08 07:42:44;;;;;;;1.77;1.15;;;5.00;99.90;;;;;;5035152;28;20431;-76
2022/04/08 07:45:10;;;;;;;4.63;1.30;;;5.10;99.90;;;;;;5035112;28;20041;-76
2022/04/08 07:47:37;;;;;;;4.65;1.30;;;5.30;99.90;;;;;;5035154;28;20184;-76
2022/04/08 07:50:09;;;;;;;1.53;1.17;;;5.40;99.90;;;;;;5034853;28;20052;-76
2022/04/08 07:52:35;;;;;;;4.78;1.45;;;5.50;99.90;;;;;;5035017;28;20073;-75
2022/04/08 07:55:01;;;;;;;3.50;1.30;;;5.70;99.90;;;;;;5034827;28;20073;-77
2022/04/08 07:57:27;;;;;;;3.88;1.30;;;6.10;99.90;;;;;;5034495;28;20103;-76
2022/04/08 07:59:53;;;;;;;6.78;1.40;;;5.90;99.90;;;;;;5034848;28;20050;-75
2022/04/08 08:02:18;;;;;;;10.63;1.60;;;6.10;99.90;;;;;;5034845;28;20042;-76
2022/04/08 08:04:44;;;;;;;3.33;1.40;;;6.20;99.90;;;;;;5034809;28;20102;-77
2022/04/08 08:07:10;;;;;;;9.20;1.60;;;6.40;99.90;;;;;;5034550;28;20049;-76
2022/04/08 08:09:36;;;;;;;3.53;1.30;;;6.40;99.90;;;;;;5034116;28;20052;-75
2022/04/08 08:12:02;;;;;;;4.78;1.58;;;6.50;99.90;;;;;;5034441;28;20088;-76
2022/04/08 08:14:28;;;;;;;6.05;1.50;;;6.60;99.90;;;;;;5034167;28;20136;-77
2022/04/08 08:16:54;;;;;;;6.00;1.42;;;6.60;99.90;;;;;;5033606;28;20132;-77
2022/04/08 08:19:19;;;;;;;3.55;1.55;;;6.60;99.90;;;;;;5034588;28;20132;-78
2022/04/08 08:21:45;;;;;;;7.28;1.70;;;6.50;99.90;;;;;;5034488;28;20037;-75
2022/04/08 08:24:10;;;;;;;3.25;1.58;;;6.40;99.90;;;;;;5034087;28;20045;-75
2022/04/08 08:26:36;;;;;;;7.00;2.13;;;6.20;99.90;;;;;;5034302;28;20049;-75
2022/04/08 08:29:02;;;;;;;8.98;2.00;;;6.10;99.90;;;;;;5034241;28;20053;-76
2022/04/08 08:31:28;;;;;;;5.85;1.63;;;6.10;99.90;;;;;;5034106;28;20049;-75
2022/04/08 08:33:53;;;;;;;5.97;1.90;;;6.10;99.90;;;;;;5034362;28;20124;-74
2022/04/08 08:36:19;;;;;;;4.68;1.90;;;5.90;99.90;;;;;;5034246;28;20544;-75
2022/04/08 08:38:44;;;;;;;4.38;1.73;;;5.80;99.90;;;;;;5033986;28;20469;-77
2022/04/08 08:41:11;;;;;;;7.63;1.67;;;5.80;99.90;;;;;;5034221;28;20094;-75
2022/04/08 08:43:36;;;;;;;8.07;2.13;;;5.80;99.90;;;;;;5033740;28;20049;-76
2022/04/08 08:46:04;;;;;;;5.65;1.98;;;5.90;99.90;;;;;;5034162;28;20046;-77
2022/04/08 08:48:34;;;;;;;6.50;2.28;;;6.00;99.90;;;;;;5034198;28;20045;-77
2022/04/08 08:51:05;;;;;;;5.30;1.98;;;6.10;99.90;;;;;;5033846;28;20041;-77
2022/04/08 08:53:32;;;;;;;3.45;1.83;;;6.20;99.90;;;;;;5033837;28;20055;-77
2022/04/08 08:55:57;;;;;;;5.57;2.10;;;6.30;99.90;;;;;;5033539;28;20053;-77
2022/04/08 08:58:23;;;;;;;5.45;1.80;;;6.50;99.90;;;;;;5033895;28;20053;-77
2022/04/08 09:00:49;;;;;;;4.65;1.83;;;6.60;99.90;;;;;;5033933;28;20053;-77
2022/04/08 09:03:15;;;;;;;3.53;2.03;;;6.80;99.90;;;;;;5033595;28;20045;-76
2022/04/08 09:05:47;;;;;;;4.95;2.20;;;6.80;99.90;;;;;;5016262;28;20037;-74
2022/04/08 09:08:13;;;;;;;7.15;2.80;;;6.70;99.90;;;;;;5033438;28;20049;-75
2022/04/08 09:10:46;;;;;;;6.03;1.90;;;6.80;99.90;;;;;;5033633;28;20051;-73
2022/04/08 09:13:15;;;;;;;4.25;2.13;;;6.90;99.90;;;;;;5034111;28;20354;-74
2022/04/08 09:15:52;;;;;;;6.30;2.22;;;7.00;99.90;;;;;;5033739;28;20092;-75
2022/04/08 09:18:18;;;;;;;4.88;2.13;;;7.10;99.90;;;;;;5033745;28;20042;-77
2022/04/08 09:20:49;;;;;;;5.38;1.80;;;7.20;99.90;;;;;;5033810;28;20116;-77
2022/04/08 09:23:16;;;;;;;3.95;1.50;;;7.30;99.90;;;;;;5033667;28;20089;-74
2022/04/08 09:25:42;;;;;;;4.13;1.75;;;7.40;99.90;;;;;;5033628;28;20044;-75
2022/04/08 09:28:08;;;;;;;52.00;27.55;;;7.50;99.90;;;;;;5035106;28;20120;-78
2022/04/08 09:30:35;;;;;;;10.10;3.77;;;7.60;99.90;;;;;;5037771;28;20440;-76
2022/04/08 09:33:10;;;;;;;4.07;1.40;;;7.70;99.90;;;;;;5037695;28;20477;-75
2022/04/08 09:35:40;;;;;;;2.78;1.67;;;7.70;99.90;;;;;;5037650;28;20056;-75
2022/04/08 09:38:06;;;;;;;5.03;1.80;;;7.90;99.90;;;;;;5037757;28;20041;-76
2022/04/08 09:40:39;;;;;;;2.90;1.20;;;7.90;99.90;;;;;;5037912;28;20038;-78
2022/04/08 09:43:06;;;;;;;5.03;1.50;;;8.10;99.90;;;;;;5037531;28;20102;-75
2022/04/08 09:45:32;;;;;;;7.32;1.60;;;8.10;99.90;;;;;;5037586;28;20049;-74
2022/04/08 09:47:59;;;;;;;4.97;1.40;;;8.30;99.90;;;;;;5036955;28;20045;-75
2022/04/08 09:50:24;;;;;;;;;;;8.40;99.90;;;;;;5018841;28;20046;-75
2022/04/08 09:52:50;;;;;;;6.18;1.80;;;8.50;99.90;;;;;;5017637;28;19976;-74
2022/04/08 09:55:16;;;;;;;5.35;1.60;;;8.60;99.90;;;;;;5017558;28;20046;-74
2022/04/08 09:57:46;;;;;;;4.00;1.52;;;8.70;99.90;;;;;;5017843;28;20433;-75
2022/04/08 10:00:12;;;;;;;7.72;2.45;;;8.70;99.90;;;;;;5017715;28;20042;-75
2022/04/08 10:02:44;;;;;;;7.60;2.00;;;8.70;99.90;;;;;;5017242;28;20046;-73
2022/04/08 10:05:11;;;;;;;7.45;2.28;;;8.70;99.90;;;;;;5017328;28;20054;-76
2022/04/08 10:07:38;;;;;;;8.40;2.35;;;8.80;99.90;;;;;;5017423;28;20053;-74
2022/04/08 10:10:20;;;;;;;8.15;2.03;;;9.00;99.90;;;;;;5017284;28;20042;-74
2022/04/08 10:13:26;;;;;;;7.00;2.28;;;9.30;99.90;;;;;;5017344;28;20042;-74
2022/04/08 10:16:18;;;;;;;9.80;2.40;;;9.30;99.90;;;;;;5017190;28;20510;-75
2022/04/08 10:18:45;;;;;;;9.93;2.22;;;9.30;99.90;;;;;;5016985;28;20486;-75
2022/04/08 10:21:11;;;;;;;8.45;2.13;;;9.20;99.90;;;;;;5015789;28;20417;-75
2022/04/08 10:23:45;;;;;;;9.50;2.42;;;9.20;99.90;;;;;;5015914;28;20137;-75
2022/04/08 10:26:25;;;;;;;12.93;2.30;;;9.20;99.90;;;;;;5016965;28;20053;-74
2022/04/08 10:28:53;;;;;;;7.95;2.20;;;9.10;99.90;;;;;;5017270;28;20139;-77
2022/04/08 10:31:24;;;;;;;6.22;1.88;;;9.20;99.90;;;;;;5015670;28;20050;-77
2022/04/08 10:33:52;;;;;;;6.47;2.13;;;9.20;99.90;;;;;;5017082;28;20050;-77
2022/04/08 10:36:18;;;;;;;7.78;1.85;;;9.10;99.90;;;;;;5016871;28;20085;-78
2022/04/08 10:38:43;;;;;;;7.20;1.73;;;9.00;99.90;;;;;;5016916;28;20544;-77
2022/04/08 10:41:10;;;;;;;5.13;1.80;;;8.90;99.90;;;;;;5015294;28;20068;-75
2022/04/08 10:43:52;;;;;;;4.95;1.90;;;8.90;99.90;;;;;;5021460;28;20037;-76
2022/04/08 10:46:32;;;;;;;7.97;1.80;;;9.00;99.90;;;;;;5036207;28;20049;-75
2022/04/08 10:48:57;;;;;;;6.18;1.75;;;9.10;99.90;;;;;;5035702;28;20053;-76
2022/04/08 10:51:23;;;;;;;9.77;2.38;;;9.30;99.90;;;;;;5036185;28;20547;-76
2022/04/08 10:53:49;;;;;;;9.77;1.88;;;9.40;99.90;;;;;;5035964;28;20056;-76
2022/04/08 10:56:15;;;;;;;4.63;1.77;;;9.50;99.90;;;;;;5036241;28;20042;-75
2022/04/08 10:58:46;;;;;;;6.95;1.50;;;9.60;99.90;;;;;;5036307;28;20064;-75
2022/04/08 11:01:20;;;;;;;6.65;1.40;;;9.60;99.90;;;;;;5036083;28;20484;-75
2022/04/08 11:03:52;;;;;;;5.80;1.63;;;9.50;99.90;;;;;;5036620;28;20128;-76
2022/04/08 11:06:19;;;;;;;5.22;1.40;;;9.50;99.90;;;;;;5036012;28;20076;-76
2022/04/08 11:08:45;;;;;;;5.00;1.40;;;9.50;99.90;;;;;;5036010;28;20107;-76
2022/04/08 11:11:11;;;;;;;4.15;1.45;;;9.40;99.90;;;;;;5035825;28;20095;-76
2022/04/08 11:13:40;;;;;;;4.50;1.45;;;9.30;99.90;;;;;;5035898;28;20049;-75
2022/04/08 11:16:06;;;;;;;4.85;1.33;;;9.20;99.90;;;;;;5035794;28;20053;-75
2022/04/08 11:18:32;;;;;;;7.35;1.40;;;9.10;99.90;;;;;;5035775;28;20533;-75
2022/04/08 11:20:57;;;;;;;3.05;1.25;;;8.90;99.90;;;;;;5035853;28;20089;-75
2022/04/08 11:23:27;;;;;;;6.43;1.55;;;8.60;99.90;;;;;;5036009;28;20041;-75
2022/04/08 11:25:54;;;;;;;11.30;1.85;;;8.30;99.90;;;;;;5035664;28;20128;-75
2022/04/08 11:28:22;;;;;;;4.97;1.43;;;8.10;99.90;;;;;;5035596;28;20515;-75
2022/04/08 11:30:57;;;;;;;7.25;1.40;;;7.90;99.90;;;;;;5035415;28;20108;-75
2022/04/08 11:33:24;;;;;;;7.38;1.63;;;7.70;99.90;;;;;;5035556;28;20118;-75
2022/04/08 11:35:58;;;;;;;10.48;1.85;;;7.60;99.90;;;;;;5035510;28;20389;-75
2022/04/08 11:38:25;;;;;;;4.63;1.90;;;7.50;99.90;;;;;;5035457;28;20045;-75
2022/04/08 11:40:51;;;;;;;6.32;1.80;;;7.40;99.90;;;;;;5035407;28;20045;-75
2022/04/08 11:43:17;;;;;;;12.73;2.00;;;7.50;99.90;;;;;;5035236;28;20072;-75
2022/04/08 11:45:44;;;;;;;7.95;2.00;;;7.50;99.90;;;;;;5035281;28;20045;-75
2022/04/08 11:48:23;;;;;;;7.22;1.55;;;7.50;99.90;;;;;;5035286;28;20087;-75
2022/04/08 11:50:49;;;;;;;5.93;1.70;;;7.50;99.90;;;;;;5034952;28;20485;-76
2022/04/08 11:53:20;;;;;;;4.70;1.70;;;7.60;99.90;;;;;;5035058;28;20424;-75
2022/04/08 11:55:56;;;;;;;7.38;2.28;;;7.60;99.90;;;;;;5035045;28;20406;-76
2022/04/08 11:58:22;;;;;;;9.80;2.17;;;7.70;99.90;;;;;;5034920;28;20049;-75
2022/04/08 12:00:49;;;;;;;7.68;1.73;;;7.80;99.90;;;;;;5034967;28;20135;-75
2022/04/08 12:03:23;;;;;;;6.65;1.98;;;8.00;99.90;;;;;;5034852;28;20083;-76
2022/04/08 12:05:50;;;;;;;6.80;1.92;;;8.10;99.90;;;;;;5034907;28;20045;-76
2022/04/08 12:08:16;;;;;;;;;;;8.40;99.90;;;;;;5035174;28;20049;-75
2022/04/08 12:10:42;;;;;;;6.32;1.77;;;8.60;99.90;;;;;;5034717;28;19932;-76
2022/04/08 12:13:15;;;;;;;7.40;2.00;;;8.70;99.90;;;;;;5034687;28;20489;-75
2022/04/08 12:15:46;;;;;;;8.10;1.90;;;8.80;99.90;;;;;;5034624;28;20132;-75
2022/04/08 12:18:12;;;;;;;7.05;1.70;;;9.00;99.90;;;;;;5034670;28;20485;-76
2022/04/08 12:20:41;;;;;;;5.25;1.65;;;9.10;99.90;;;;;;5017105;28;20080;-76
2022/04/08 12:23:10;;;;;;;5.47;1.65;;;9.30;99.90;;;;;;5034529;28;20045;-75
2022/04/08 12:25:36;;;;;;;5.63;1.85;;;9.50;99.90;;;;;;5034591;28;20053;-76
2022/04/08 12:28:09;;;;;;;7.78;1.70;;;9.70;99.90;;;;;;5017110;28;20131;-76
2022/04/08 12:30:34;;;;;;;7.65;2.35;;;9.80;99.90;;;;;;5016659;28;20050;-76
2022/04/08 12:33:00;;;;;;;8.07;1.50;;;10.00;99.90;;;;;;5034328;28;20056;-76
2022/04/08 12:35:26;;;;;;;3.58;1.30;;;10.00;99.90;;;;;;5034437;28;20048;-76
2022/04/08 12:37:52;;;;;;;4.32;1.30;;;10.00;99.90;;;;;;5034319;28;20511;-76
2022/04/08 12:40:18;;;;;;;5.28;1.50;;;9.90;99.90;;;;;;5034337;28;20053;-76
2022/04/08 12:42:43;;;;;;;6.28;1.50;;;9.70;99.90;;;;;;5034519;28;20143;-76
2022/04/08 12:45:09;;;;;;;4.75;1.25;;;9.50;99.90;;;;;;5034183;28;20099;-76
2022/04/08 12:47:35;;;;;;;5.97;1.40;;;9.40;99.90;;;;;;5034320;28;20047;-76
2022/04/08 12:50:01;;;;;;;2.72;1.15;;;9.20;99.90;;;;;;5034113;28;20128;-76
2022/04/08 12:52:26;;;;;;;3.92;1.10;;;9.20;99.90;;;;;;5034402;28;20555;-76
2022/04/08 12:54:52;;;;;;;3.83;1.33;;;9.30;99.90;;;;;;5034023;28;20050;-76
2022/04/08 12:57:21;;;;;;;2.85;1.30;;;9.40;99.90;;;;;;5034059;28;20041;-76